Time;durP1;ratioP1;P1;durP2;ratioP2;P2;SDS_P1;SDS_P2;PMS_P1;PMS_P2;Temp;Humidity;BMP_temperature;BMP_pressure;BME280_temperature;BME280_humidity;BME280_pressure;Samples;Min_cycle;Max_cycle;Signal;HPM_P1;HPM_P2
2023/05/12 00:01:56;;;;;;;17.55;11.23;;;11.80;99.90;;;;;;5002643;28;20041;-83
2023/05/12 00:04:22;;;;;;;15.55;10.32;;;11.80;99.90;;;;;;5009232;28;20037;-84
2023/05/12 00:06:48;;;;;;;16.50;10.13;;;11.80;99.90;;;;;;5009181;28;20040;-84
2023/05/12 00:09:13;;;;;;;16.20;9.68;;;11.80;99.90;;;;;;5002369;28;20214;-84
2023/05/12 00:11:39;;;;;;;18.48;11.57;;;11.80;99.90;;;;;;5011403;28;20040;-84
2023/05/12 00:14:05;;;;;;;20.80;10.88;;;11.70;99.90;;;;;;5034053;28;20040;-84
2023/05/12 00:16:31;;;;;;;13.85;9.75;;;11.80;99.90;;;;;;5018637;28;20053;-85
2023/05/12 00:18:57;;;;;;;15.27;10.30;;;11.70;99.90;;;;;;5018374;28;20052;-83
2023/05/12 00:21:22;;;;;;;17.92;10.70;;;11.80;99.90;;;;;;5005882;28;20045;-84
2023/05/12 00:23:48;;;;;;;15.48;10.15;;;11.70;99.90;;;;;;4989756;28;20048;-84
2023/05/12 00:26:14;;;;;;;14.93;9.88;;;11.70;99.90;;;;;;4989806;28;20455;-83
2023/05/12 00:28:39;;;;;;;13.73;9.68;;;11.70;99.90;;;;;;5038416;28;20045;-84
2023/05/12 00:31:05;;;;;;;14.10;9.07;;;11.70;99.90;;;;;;5022387;28;20041;-84
2023/05/12 00:33:31;;;;;;;15.45;10.80;;;11.70;99.90;;;;;;5038628;28;20400;-84
2023/05/12 00:35:59;;;;;;;16.95;11.77;;;11.70;99.90;;;;;;5022254;28;20485;-84
2023/05/12 00:38:25;;;;;;;14.85;10.43;;;11.70;99.90;;;;;;5037648;28;20123;-83
2023/05/12 00:40:50;;;;;;;17.67;11.32;;;11.70;99.90;;;;;;5009267;28;20037;-82
2023/05/12 00:43:16;;;;;;;13.20;9.77;;;11.70;99.90;;;;;;5032096;28;20041;-83
2023/05/12 00:45:43;;;;;;;15.77;10.63;;;11.70;99.90;;;;;;5005248;28;20048;-84
2023/05/12 00:48:09;;;;;;;16.85;11.32;;;11.70;99.90;;;;;;5022263;28;20041;-84
2023/05/12 00:50:34;;;;;;;16.13;10.50;;;11.70;99.90;;;;;;5020222;28;20049;-83
2023/05/12 00:53:00;;;;;;;15.68;10.55;;;11.70;99.90;;;;;;4988744;28;20091;-84
2023/05/12 00:55:28;;;;;;;14.73;9.35;;;11.70;99.90;;;;;;5036095;28;20095;-84
2023/05/12 00:57:54;;;;;;;16.17;10.93;;;11.70;99.90;;;;;;5033013;28;20055;-84
2023/05/12 01:00:21;;;;;;;14.95;10.35;;;11.70;99.90;;;;;;5037338;28;20045;-84
2023/05/12 01:02:47;;;;;;;14.77;10.10;;;11.70;99.90;;;;;;5009490;28;20033;-84
2023/05/12 01:05:13;;;;;;;11.82;8.55;;;11.70;99.90;;;;;;5006823;28;20153;-84
2023/05/12 01:07:40;;;;;;;13.02;9.40;;;11.70;99.90;;;;;;5004529;28;20041;-83
2023/05/12 01:10:20;;;;;;;14.18;9.55;;;11.70;99.90;;;;;;5018892;28;20129;-84
2023/05/12 01:12:47;;;;;;;12.07;8.57;;;11.70;99.90;;;;;;5008521;28;20111;-84
2023/05/12 01:15:13;;;;;;;13.48;8.93;;;11.70;99.90;;;;;;5038139;28;20037;-83
2023/05/12 01:17:45;;;;;;;12.80;8.30;;;11.80;99.90;;;;;;5002504;28;20033;-84
2023/05/12 01:20:13;;;;;;;14.20;8.77;;;11.70;99.90;;;;;;5009119;28;20060;-83
2023/05/12 01:22:40;;;;;;;14.52;9.38;;;11.70;99.90;;;;;;5009450;28;20128;-84
2023/05/12 01:25:11;;;;;;;13.85;8.73;;;11.70;99.90;;;;;;4985063;28;20444;-84
2023/05/12 01:27:39;;;;;;;12.68;8.77;;;11.70;99.90;;;;;;5001244;28;20080;-84
2023/05/12 01:30:06;;;;;;;12.65;7.85;;;11.70;99.90;;;;;;5018350;28;20440;-85
2023/05/12 01:32:33;;;;;;;14.85;10.27;;;11.70;99.90;;;;;;4985299;28;20180;-84
2023/05/12 01:34:59;;;;;;;16.50;9.80;;;11.70;99.90;;;;;;5018431;28;20060;-84
2023/05/12 01:37:25;;;;;;;16.73;9.18;;;11.70;99.90;;;;;;5018945;28;20045;-84
2023/05/12 01:39:52;;;;;;;18.98;11.45;;;11.70;99.90;;;;;;5037067;28;20493;-84
2023/05/12 01:42:18;;;;;;;18.55;11.52;;;11.70;99.90;;;;;;5029164;28;20044;-84
2023/05/12 01:44:44;;;;;;;21.73;11.45;;;11.70;99.90;;;;;;4985403;28;20041;-84
2023/05/12 01:47:10;;;;;;;20.88;11.95;;;11.80;99.90;;;;;;5005827;28;20037;-84
2023/05/12 01:49:39;;;;;;;26.17;13.57;;;11.80;99.90;;;;;;5005300;28;20036;-84
2023/05/12 01:52:10;;;;;;;23.95;13.75;;;11.80;99.90;;;;;;5011245;28;20554;-84
2023/05/12 01:54:36;;;;;;;25.38;13.88;;;11.80;99.90;;;;;;5029112;28;20029;-85
2023/05/12 01:57:03;;;;;;;24.85;14.80;;;11.70;99.90;;;;;;5037047;28;20063;-83
2023/05/12 01:59:29;;;;;;;33.40;16.58;;;11.70;99.90;;;;;;4990199;28;20069;-83
2023/05/12 02:01:54;;;;;;;36.05;17.65;;;11.80;99.90;;;;;;5012707;28;20513;-84
2023/05/12 02:04:20;;;;;;;34.50;17.63;;;11.70;99.90;;;;;;5000214;28;20029;-84
2023/05/12 02:06:46;;;;;;;37.10;18.98;;;11.80;99.90;;;;;;5014030;28;20032;-83
2023/05/12 02:09:12;;;;;;;47.65;20.67;;;11.80;99.90;;;;;;4999891;28;20036;-84
2023/05/12 02:11:38;;;;;;;44.90;20.77;;;11.80;99.90;;;;;;4999844;28;20037;-84
2023/05/12 02:14:03;;;;;;;46.70;22.00;;;11.80;99.90;;;;;;5018402;28;20041;-84
2023/05/12 02:16:29;;;;;;;48.40;23.00;;;11.80;99.90;;;;;;5015153;28;20037;-84
2023/05/12 02:18:55;;;;;;;47.38;24.63;;;11.80;99.90;;;;;;4997656;28;20114;-83
2023/05/12 02:21:20;;;;;;;45.80;22.45;;;11.80;99.90;;;;;;5006968;28;20037;-84
2023/05/12 02:23:46;;;;;;;59.53;26.40;;;11.80;99.90;;;;;;5000661;28;20041;-84
2023/05/12 02:26:12;;;;;;;59.42;25.90;;;11.80;99.90;;;;;;5002223;28;20064;-84
2023/05/12 02:28:38;;;;;;;61.80;26.80;;;11.80;99.90;;;;;;4999944;28;20131;-84
2023/05/12 02:31:04;;;;;;;63.55;25.35;;;11.80;99.90;;;;;;4999985;28;20045;-84
2023/05/12 02:33:29;;;;;;;67.95;27.92;;;11.80;99.90;;;;;;4998736;28;20084;-84
2023/05/12 02:35:55;;;;;;;61.78;26.23;;;11.80;99.90;;;;;;5002537;28;20129;-83
2023/05/12 02:38:21;;;;;;;63.00;27.98;;;11.80;99.90;;;;;;5000409;28;20041;-84
2023/05/12 02:40:47;;;;;;;75.97;27.60;;;11.80;99.90;;;;;;5003316;28;20048;-84
2023/05/12 02:43:13;;;;;;;62.67;27.75;;;11.80;99.90;;;;;;4986192;28;20052;-84
2023/05/12 02:45:39;;;;;;;63.63;26.90;;;11.90;99.90;;;;;;5003130;28;20033;-85
2023/05/12 02:48:05;;;;;;;66.20;27.85;;;11.90;99.90;;;;;;5000878;28;20481;-84
2023/05/12 02:50:31;;;;;;;64.03;27.48;;;11.90;99.90;;;;;;5019622;28;20037;-84
2023/05/12 02:52:56;;;;;;;75.97;30.75;;;11.90;99.90;;;;;;4993740;28;20543;-83
2023/05/12 02:55:22;;;;;;;73.40;28.92;;;11.90;99.90;;;;;;4996520;28;20397;-84
2023/05/12 02:57:48;;;;;;;61.67;27.92;;;11.90;99.90;;;;;;4999506;28;20048;-85
2023/05/12 03:00:14;;;;;;;67.32;29.15;;;12.00;99.90;;;;;;4999504;28;20055;-84
2023/05/12 03:02:40;;;;;;;61.95;28.80;;;12.00;99.90;;;;;;5006036;28;20045;-83
2023/05/12 03:05:07;;;;;;;69.22;29.52;;;12.00;99.90;;;;;;5020480;28;20041;-84
2023/05/12 03:07:33;;;;;;;73.88;28.90;;;12.00;99.90;;;;;;5022982;28;20029;-84
2023/05/12 03:09:58;;;;;;;72.90;29.77;;;12.00;99.90;;;;;;5010872;28;20114;-85
2023/05/12 03:12:24;;;;;;;76.72;29.95;;;12.00;99.90;;;;;;5000488;28;20528;-84
2023/05/12 03:14:50;;;;;;;71.68;28.85;;;12.00;99.90;;;;;;5019755;28;20036;-84
2023/05/12 03:17:16;;;;;;;74.32;30.80;;;12.00;99.90;;;;;;4986287;28;20052;-84
2023/05/12 03:19:42;;;;;;;69.95;28.08;;;12.00;99.90;;;;;;4983132;28;20073;-84
2023/05/12 03:22:08;;;;;;;74.82;29.83;;;12.10;99.90;;;;;;5020139;28;20041;-84
2023/05/12 03:24:34;;;;;;;69.40;31.05;;;12.10;99.90;;;;;;4986485;28;20076;-84
2023/05/12 03:26:59;;;;;;;73.20;30.50;;;11.50;99.90;;;;;;5011412;28;20037;-84
2023/05/12 03:29:25;;;;;;;68.55;30.45;;;12.10;99.90;;;;;;4974824;28;20033;-83
2023/05/12 03:31:51;;;;;;;66.82;30.80;;;12.10;99.90;;;;;;5002345;28;20040;-83
2023/05/12 03:34:17;;;;;;;74.90;31.63;;;12.10;99.90;;;;;;5018908;28;20051;-84
2023/05/12 03:36:44;;;;;;;60.25;29.95;;;12.10;99.90;;;;;;4999113;28;20120;-84
2023/05/12 03:39:09;;;;;;;76.22;31.55;;;12.10;99.90;;;;;;5009547;28;20049;-84
2023/05/12 03:41:35;;;;;;;69.07;30.70;;;12.10;99.90;;;;;;4999460;28;20141;-84
2023/05/12 03:44:01;;;;;;;70.68;29.77;;;12.10;99.90;;;;;;5015316;28;20103;-84
2023/05/12 03:46:27;;;;;;;69.90;29.15;;;12.10;99.90;;;;;;4999254;28;20510;-84
2023/05/12 03:48:53;;;;;;;73.07;31.38;;;12.20;99.90;;;;;;5003382;28;20055;-85
2023/05/12 03:51:19;;;;;;;68.43;31.35;;;12.20;99.90;;;;;;4986154;28;20037;-84
2023/05/12 03:53:46;;;;;;;64.95;30.20;;;12.20;99.90;;;;;;4999165;28;20045;-84
2023/05/12 03:56:12;;;;;;;70.57;30.50;;;12.20;99.90;;;;;;5006232;28;20048;-84
2023/05/12 03:58:38;;;;;;;72.85;30.65;;;12.20;99.90;;;;;;5022686;28;20489;-85
2023/05/12 04:01:04;;;;;;;70.65;30.77;;;12.20;99.90;;;;;;5006167;28;20052;-84
2023/05/12 04:03:30;;;;;;;75.47;31.20;;;12.20;99.90;;;;;;5006422;28;20114;-84
2023/05/12 04:06:00;;;;;;;82.93;32.42;;;12.20;99.90;;;;;;4990707;28;20091;-84
2023/05/12 04:08:26;;;;;;;72.10;30.77;;;12.20;99.90;;;;;;5006527;28;20075;-84
2023/05/12 04:10:57;;;;;;;81.13;31.88;;;12.20;99.90;;;;;;5004764;28;20389;-84
2023/05/12 04:13:23;;;;;;;81.90;32.22;;;12.20;99.90;;;;;;4985233;28;20047;-84
2023/05/12 04:15:49;;;;;;;79.45;32.40;;;12.20;99.90;;;;;;5022534;28;20041;-84
2023/05/12 04:18:15;;;;;;;75.18;31.48;;;12.30;99.90;;;;;;5010130;28;20047;-83
2023/05/12 04:20:41;;;;;;;75.07;32.75;;;11.80;99.90;;;;;;5041334;28;20060;-84
2023/05/12 04:23:07;;;;;;;68.90;31.20;;;12.30;99.90;;;;;;5028805;28;20136;-83
2023/05/12 04:25:32;;;;;;;68.28;31.77;;;12.20;99.90;;;;;;5022189;28;20041;-83
2023/05/12 04:27:58;;;;;;;72.13;32.22;;;12.20;99.90;;;;;;5002720;28;20064;-84
2023/05/12 04:30:24;;;;;;;71.70;32.72;;;12.30;99.90;;;;;;5005764;28;20094;-84
2023/05/12 04:32:50;;;;;;;68.00;29.45;;;12.30;99.90;;;;;;5005985;28;20037;-83
2023/05/12 04:35:15;;;;;;;74.10;31.45;;;12.30;99.90;;;;;;5022558;28;20431;-84
2023/05/12 04:37:41;;;;;;;59.88;30.35;;;12.30;99.90;;;;;;5022064;28;20041;-83
2023/05/12 04:40:07;;;;;;;71.78;31.42;;;12.30;99.90;;;;;;5005866;28;20076;-85
2023/05/12 04:42:34;;;;;;;78.28;33.10;;;12.30;99.90;;;;;;5004737;28;20041;-83
2023/05/12 04:44:59;;;;;;;71.97;31.88;;;12.40;99.90;;;;;;5004386;28;20334;-84
2023/05/12 04:47:25;;;;;;;72.80;32.25;;;12.40;99.90;;;;;;5020354;28;20377;-83
2023/05/12 04:49:51;;;;;;;63.13;30.90;;;12.40;99.90;;;;;;4986237;28;20033;-84
2023/05/12 04:52:17;;;;;;;59.50;29.80;;;12.40;99.90;;;;;;5022089;28;20062;-84
2023/05/12 04:54:42;;;;;;;65.18;31.02;;;12.40;99.90;;;;;;4986701;28;20124;-84
2023/05/12 04:57:08;;;;;;;66.72;31.58;;;12.50;99.90;;;;;;5001995;28;20048;-84
2023/05/12 04:59:34;;;;;;;63.75;31.38;;;12.50;99.90;;;;;;4995989;28;20129;-83
2023/05/12 05:02:00;;;;;;;72.32;31.85;;;12.50;99.90;;;;;;5005382;28;20040;-83
2023/05/12 05:04:26;;;;;;;66.70;32.58;;;12.60;99.90;;;;;;4989004;28;20044;-83
2023/05/12 05:06:54;;;;;;;64.90;30.15;;;12.60;99.90;;;;;;5004890;28;20037;-84
2023/05/12 05:09:20;;;;;;;60.28;30.65;;;12.70;99.90;;;;;;5038450;28;20045;-84
2023/05/12 05:11:46;;;;;;;60.13;31.92;;;12.70;99.90;;;;;;5021478;28;20120;-84
2023/05/12 05:14:12;;;;;;;62.75;31.20;;;12.70;99.90;;;;;;5022221;28;20131;-84
2023/05/12 05:16:38;;;;;;;58.92;30.80;;;12.70;99.90;;;;;;5005104;28;20493;-84
2023/05/12 05:19:03;;;;;;;60.08;31.17;;;12.70;99.90;;;;;;5020976;28;20136;-84
2023/05/12 05:21:29;;;;;;;61.88;32.22;;;12.80;99.90;;;;;;5005093;28;20516;-84
2023/05/12 05:23:55;;;;;;;50.40;27.10;;;12.80;99.90;;;;;;4988849;28;20048;-84
2023/05/12 05:26:21;;;;;;;56.25;29.90;;;12.80;99.90;;;;;;5005262;28;20037;-84
2023/05/12 05:28:46;;;;;;;51.90;27.52;;;12.80;99.90;;;;;;5021377;28;20562;-84
2023/05/12 05:31:16;;;;;;;54.15;29.48;;;12.90;99.90;;;;;;5004861;28;20043;-84
2023/05/12 05:33:43;;;;;;;51.17;29.45;;;12.90;99.90;;;;;;5005241;28;20048;-84
2023/05/12 05:36:09;;;;;;;55.10;30.65;;;12.90;99.90;;;;;;5034655;28;20041;-84
2023/05/12 05:38:35;;;;;;;58.08;31.30;;;13.00;99.90;;;;;;5051818;28;20044;-84
2023/05/12 05:41:01;;;;;;;54.10;30.23;;;13.00;99.90;;;;;;5005245;28;20079;-85
2023/05/12 05:43:26;;;;;;;53.70;30.05;;;13.00;99.90;;;;;;5021174;28;20527;-84
2023/05/12 05:45:54;;;;;;;50.28;29.52;;;13.10;99.90;;;;;;5004875;28;20072;-84
2023/05/12 05:48:20;;;;;;;51.00;28.77;;;13.10;99.90;;;;;;5004906;28;20050;-83
2023/05/12 05:50:46;;;;;;;51.53;29.60;;;13.10;99.90;;;;;;5020561;28;20048;-85
2023/05/12 05:53:12;;;;;;;50.05;28.73;;;13.20;99.90;;;;;;4997916;28;20061;-84
2023/05/12 05:55:37;;;;;;;45.75;27.85;;;13.20;99.90;;;;;;5015102;28;20094;-84
2023/05/12 05:58:04;;;;;;;47.22;28.45;;;13.20;99.90;;;;;;4987165;28;20038;-85
2023/05/12 06:00:30;;;;;;;52.53;29.58;;;13.20;99.90;;;;;;5004685;28;20028;-84
2023/05/12 06:02:55;;;;;;;49.38;28.63;;;13.20;99.90;;;;;;5019958;28;20396;-83
2023/05/12 06:05:21;;;;;;;51.67;29.42;;;13.30;99.90;;;;;;5017472;28;20030;-83
2023/05/12 06:07:47;;;;;;;46.78;28.13;;;13.30;99.90;;;;;;4998627;28;20034;-83
2023/05/12 06:10:13;;;;;;;49.20;29.00;;;13.30;99.90;;;;;;5020148;28;20032;-84
2023/05/12 06:12:39;;;;;;;50.22;29.50;;;13.40;99.90;;;;;;5003566;28;20076;-83
2023/05/12 06:15:06;;;;;;;46.58;28.85;;;13.40;99.90;;;;;;5020313;28;20041;-84
2023/05/12 06:17:32;;;;;;;48.45;29.38;;;13.40;99.90;;;;;;5003142;28;20131;-85
2023/05/12 06:19:57;;;;;;;49.72;28.60;;;13.50;99.90;;;;;;5019962;28;20084;-85
2023/05/12 06:22:23;;;;;;;47.90;29.50;;;13.40;99.90;;;;;;5020195;28;20049;-83
2023/05/12 06:24:49;;;;;;;49.13;29.38;;;13.50;99.90;;;;;;4987040;28;20038;-84
2023/05/12 06:27:16;;;;;;;47.15;29.08;;;13.50;99.90;;;;;;5011549;28;20438;-84
2023/05/12 06:29:41;;;;;;;47.55;28.35;;;13.60;99.90;;;;;;5003922;28;20044;-83
2023/05/12 06:32:07;;;;;;;45.00;28.70;;;13.60;99.90;;;;;;5003717;28;20476;-83
2023/05/12 06:34:33;;;;;;;47.15;28.20;;;13.60;99.90;;;;;;5000441;28;20041;-83
2023/05/12 06:36:59;;;;;;;49.88;29.70;;;13.60;99.90;;;;;;4998412;28;20048;-82
2023/05/12 06:39:25;;;;;;;48.95;29.88;;;13.70;99.90;;;;;;5002801;28;20578;-83
2023/05/12 06:41:51;;;;;;;46.47;27.58;;;13.70;99.90;;;;;;5000841;28;20041;-83
2023/05/12 06:44:16;;;;;;;54.30;30.67;;;13.70;99.90;;;;;;4999927;28;20095;-82
2023/05/12 06:46:42;;;;;;;50.28;30.58;;;13.70;99.90;;;;;;4988780;28;20040;-82
2023/05/12 06:49:08;;;;;;;49.28;29.80;;;13.70;99.90;;;;;;5001173;28;20041;-83
2023/05/12 06:51:34;;;;;;;46.88;29.25;;;13.70;99.90;;;;;;4995734;28;20057;-84
2023/05/12 06:54:02;;;;;;;47.40;29.73;;;13.70;99.90;;;;;;5017511;28;20123;-83
2023/05/12 06:56:28;;;;;;;43.22;28.50;;;13.80;99.90;;;;;;4994217;28;20489;-83
2023/05/12 06:59:00;;;;;;;46.75;28.85;;;13.80;99.90;;;;;;4988876;28;20090;-83
2023/05/12 07:01:30;;;;;;;43.70;28.00;;;13.90;99.90;;;;;;4973519;28;20041;-84
2023/05/12 07:03:57;;;;;;;44.67;27.85;;;14.00;99.90;;;;;;5019836;28;20041;-86
2023/05/12 07:06:26;;;;;;;43.63;28.30;;;14.00;99.90;;;;;;5021389;28;20489;-86
2023/05/12 07:08:53;;;;;;;40.75;27.33;;;14.10;99.90;;;;;;4998058;28;20041;-86
2023/05/12 07:11:19;;;;;;;46.72;27.33;;;14.10;99.90;;;;;;5011085;28;20504;-85
2023/05/12 07:13:49;;;;;;;43.03;27.90;;;14.20;99.90;;;;;;4996166;28;20045;-85
2023/05/12 07:16:16;;;;;;;42.03;26.02;;;14.20;99.90;;;;;;5033983;28;20049;-86
2023/05/12 07:18:42;;;;;;;45.40;27.15;;;14.30;99.90;;;;;;5006557;28;20604;-86
2023/05/12 07:21:08;;;;;;;42.97;26.50;;;14.30;99.90;;;;;;5002389;28;20041;-85
2023/05/12 07:23:35;;;;;;;41.30;26.58;;;14.30;99.90;;;;;;5013319;28;20077;-85
2023/05/12 07:26:02;;;;;;;37.42;25.15;;;14.40;99.90;;;;;;4989845;28;20029;-85
2023/05/12 07:28:35;;;;;;;39.22;24.85;;;14.40;99.90;;;;;;5016589;28;20115;-85
2023/05/12 07:31:02;;;;;;;43.03;26.45;;;14.50;99.90;;;;;;4998242;28;20120;-84
2023/05/12 07:33:29;;;;;;;38.53;25.25;;;14.60;99.90;;;;;;5008890;28;20508;-85
2023/05/12 07:35:55;;;;;;;38.75;25.48;;;14.60;99.90;;;;;;5003098;28;20045;-84
2023/05/12 07:38:22;;;;;;;40.75;26.92;;;14.70;99.90;;;;;;4986551;28;20098;-84
2023/05/12 07:40:47;;;;;;;37.80;25.83;;;14.80;99.90;;;;;;5003345;28;20078;-85
2023/05/12 07:43:13;;;;;;;39.00;25.42;;;14.90;99.90;;;;;;4999550;28;20164;-86
2023/05/12 07:45:39;;;;;;;34.53;23.67;;;14.90;99.90;;;;;;5017901;28;20055;-85
2023/05/12 07:48:05;;;;;;;37.95;24.48;;;15.00;99.90;;;;;;5019495;28;20499;-85
2023/05/12 07:50:30;;;;;;;34.50;22.15;;;15.10;99.90;;;;;;4996424;28;20393;-84
2023/05/12 07:52:56;;;;;;;35.25;23.88;;;15.20;99.90;;;;;;5030234;28;20067;-85
2023/05/12 07:55:22;;;;;;;37.00;24.33;;;15.30;99.90;;;;;;4977121;28;20044;-84
2023/05/12 07:57:51;;;;;;;37.33;24.65;;;15.30;99.90;;;;;;5006391;28;20072;-85
2023/05/12 08:00:17;;;;;;;30.15;21.90;;;15.40;99.90;;;;;;5000628;28;20037;-84
2023/05/12 08:02:42;;;;;;;37.53;24.27;;;15.50;99.90;;;;;;5001940;28;20057;-84
2023/05/12 08:05:09;;;;;;;35.22;24.00;;;15.50;99.90;;;;;;5017247;28;20401;-85
2023/05/12 08:07:36;;;;;;;31.60;22.70;;;15.50;99.90;;;;;;5002763;28;20037;-85
2023/05/12 08:10:03;;;;;;;36.15;23.63;;;15.70;99.90;;;;;;5018847;28;20060;-84
2023/05/12 08:12:30;;;;;;;33.53;23.45;;;15.70;99.90;;;;;;5035338;28;20033;-85
2023/05/12 08:14:55;;;;;;;33.83;23.92;;;15.80;99.90;;;;;;5032354;28;20037;-85
2023/05/12 08:17:21;;;;;;;34.88;24.08;;;15.80;99.90;;;;;;5019445;28;20098;-84
2023/05/12 08:19:47;;;;;;;34.20;22.58;;;15.80;99.90;;;;;;5018282;28;20107;-86
2023/05/12 08:22:13;;;;;;;33.65;23.33;;;15.80;99.90;;;;;;5003347;28;20052;-85
2023/05/12 08:24:38;;;;;;;32.35;22.90;;;15.90;99.90;;;;;;5015206;28;20041;-84
2023/05/12 08:27:04;;;;;;;33.13;23.13;;;15.90;99.90;;;;;;5012433;28;20048;-85
2023/05/12 08:29:30;;;;;;;34.65;24.25;;;15.90;99.90;;;;;;4988211;28;20041;-85
2023/05/12 08:31:57;;;;;;;32.42;23.95;;;16.00;99.90;;;;;;5011150;28;20420;-84
2023/05/12 08:34:23;;;;;;;35.67;24.08;;;15.90;99.90;;;;;;5009343;28;20546;-83
2023/05/12 08:36:51;;;;;;;33.60;24.42;;;15.90;99.90;;;;;;5015987;28;20044;-84
2023/05/12 08:39:18;;;;;;;36.58;24.85;;;15.90;99.90;;;;;;5026659;28;20060;-85
2023/05/12 08:42:21;;;;;;;33.13;23.45;;;15.90;99.90;;;;;;5020239;28;20178;-85
2023/05/12 08:44:48;;;;;;;35.42;23.05;;;16.00;99.90;;;;;;5021955;28;20041;-84
2023/05/12 08:47:17;;;;;;;36.45;24.55;;;16.00;99.90;;;;;;5016690;28;20397;-85
2023/05/12 08:49:44;;;;;;;34.60;23.77;;;16.00;99.90;;;;;;4993295;28;20068;-85
2023/05/12 08:52:13;;;;;;;36.25;23.88;;;16.10;99.90;;;;;;5021187;28;20389;-85
2023/05/12 08:54:40;;;;;;;31.75;23.80;;;16.20;99.90;;;;;;5003026;28;20049;-85
2023/05/12 08:57:07;;;;;;;35.10;24.55;;;16.30;99.90;;;;;;4985038;28;20116;-83
2023/05/12 08:59:35;;;;;;;31.92;22.92;;;16.40;99.90;;;;;;5008128;28;20392;-84
2023/05/12 09:02:04;;;;;;;29.35;22.80;;;16.50;99.90;;;;;;5002238;28;20516;-84
2023/05/12 09:04:29;;;;;;;31.52;23.20;;;16.50;99.90;;;;;;5018084;28;20440;-85
2023/05/12 09:06:57;;;;;;;30.25;22.95;;;16.60;99.90;;;;;;5020042;28;20120;-85
2023/05/12 09:09:24;;;;;;;29.20;22.02;;;16.70;99.90;;;;;;5017253;28;20033;-84
2023/05/12 09:11:55;;;;;;;27.50;21.60;;;16.80;99.90;;;;;;5014024;28;20038;-84
2023/05/12 09:14:26;;;;;;;29.65;21.52;;;16.90;99.90;;;;;;5011984;28;20041;-84
2023/05/12 09:16:58;;;;;;;30.95;21.88;;;17.00;99.90;;;;;;5032221;28;20048;-86
2023/05/12 09:19:24;;;;;;;25.73;19.85;;;17.10;99.90;;;;;;5020641;28;20099;-85
2023/05/12 09:21:51;;;;;;;27.38;20.15;;;17.20;99.90;;;;;;5002602;28;20052;-86
2023/05/12 09:24:16;;;;;;;27.85;20.92;;;17.30;99.90;;;;;;5002724;28;20045;-85
2023/05/12 09:26:53;;;;;;;28.10;21.58;;;17.30;99.90;;;;;;5021348;28;20087;-86
2023/05/12 09:29:19;;;;;;;27.52;21.65;;;17.50;99.90;;;;;;5004361;28;20554;-86
2023/05/12 09:32:00;;;;;;;26.77;20.92;;;17.60;99.90;;;;;;5038607;28;20040;-86
2023/05/12 09:34:37;;;;;;;28.30;21.50;;;17.70;99.90;;;;;;5025430;28;20049;-86
2023/05/12 09:37:05;;;;;;;28.85;20.67;;;17.70;99.90;;;;;;4986454;28;20048;-86
2023/05/12 09:39:31;;;;;;;30.00;21.75;;;17.80;99.90;;;;;;5002334;28;20045;-85
2023/05/12 09:41:57;;;;;;;28.70;21.35;;;17.80;99.90;;;;;;5002437;28;20130;-86
2023/05/12 09:44:23;;;;;;;28.85;21.85;;;17.80;99.90;;;;;;5009069;28;20489;-85
2023/05/12 09:46:50;;;;;;;26.65;20.25;;;17.90;99.90;;;;;;5037695;28;20101;-86
2023/05/12 09:49:25;;;;;;;27.92;21.75;;;17.90;99.90;;;;;;5014276;28;20033;-85
2023/05/12 09:51:58;;;;;;;28.20;21.33;;;18.00;99.90;;;;;;5011181;28;20037;-85
2023/05/12 09:54:29;;;;;;;25.42;20.52;;;18.00;99.90;;;;;;5019312;28;20045;-85
2023/05/12 09:57:01;;;;;;;25.98;21.00;;;18.10;99.90;;;;;;5020828;28;20037;-86
2023/05/12 09:59:37;;;;;;;28.27;22.13;;;18.20;99.90;;;;;;5033672;28;20076;-87
2023/05/12 10:02:06;;;;;;;25.70;20.45;;;18.30;99.90;;;;;;5038115;28;20170;-86
2023/05/12 10:04:44;;;;;;;25.75;20.15;;;18.30;99.90;;;;;;5004349;28;20040;-86
2023/05/12 10:07:13;;;;;;;23.27;19.17;;;18.50;99.90;;;;;;5012887;28;20503;-86
2023/05/12 10:09:41;;;;;;;27.00;18.92;;;18.60;99.90;;;;;;5020283;28;20040;-88
2023/05/12 10:12:08;;;;;;;23.38;18.73;;;18.80;99.90;;;;;;5021310;28;20124;-86
2023/05/12 10:14:35;;;;;;;24.27;19.05;;;18.80;99.90;;;;;;5020488;28;20048;-86
2023/05/12 10:17:01;;;;;;;22.92;18.67;;;18.90;99.90;;;;;;5019910;28;20041;-86
2023/05/12 10:19:29;;;;;;;22.73;17.80;;;19.00;99.90;;;;;;5020179;28;20049;-85
2023/05/12 10:21:56;;;;;;;19.77;16.13;;;19.00;99.90;;;;;;5023837;28;20049;-87
2023/05/12 10:24:28;;;;;;;17.10;13.82;;;19.00;99.90;;;;;;5008064;28;20066;-85
2023/05/12 10:26:55;;;;;;;18.77;13.35;;;19.10;99.90;;;;;;5030931;28;20064;-86
2023/05/12 10:29:28;;;;;;;19.95;15.35;;;19.10;99.90;;;;;;5000148;28;20037;-86
2023/05/12 10:31:56;;;;;;;16.15;14.10;;;19.20;99.90;;;;;;5021359;28;20037;-86
2023/05/12 10:34:22;;;;;;;17.48;12.07;;;19.20;99.90;;;;;;5018822;28;20033;-85
2023/05/12 10:36:50;;;;;;;14.07;11.40;;;19.30;99.90;;;;;;5000340;28;20393;-85
2023/05/12 10:39:16;;;;;;;15.23;11.43;;;19.30;99.90;;;;;;5016671;28;20184;-87
2023/05/12 10:41:42;;;;;;;12.88;10.93;;;19.20;99.90;;;;;;5007324;28;20132;-84
2023/05/12 10:44:11;;;;;;;13.68;11.38;;;19.20;99.90;;;;;;5002114;28;20399;-87
2023/05/12 10:46:36;;;;;;;12.13;9.95;;;19.30;99.90;;;;;;4973524;28;20041;-85
2023/05/12 10:49:07;;;;;;;11.43;10.18;;;19.20;99.90;;;;;;4999861;28;20049;-85
2023/05/12 10:51:46;;;;;;;11.45;8.45;;;19.30;99.90;;;;;;5000655;28;20033;-86
2023/05/12 10:54:18;;;;;;;8.45;6.78;;;19.30;99.90;;;;;;5019812;28;20044;-86
2023/05/12 10:56:44;;;;;;;8.60;7.25;;;19.30;99.90;;;;;;5003226;28;20045;-85
2023/05/12 10:59:23;;;;;;;6.50;5.68;;;19.30;99.90;;;;;;5014023;28;20500;-85
2023/05/12 11:01:59;;;;;;;6.90;5.57;;;19.30;99.90;;;;;;5006389;28;20481;-87
2023/05/12 11:04:39;;;;;;;6.47;4.85;;;19.40;99.90;;;;;;5018861;28;20056;-86
2023/05/12 11:07:06;;;;;;;6.72;5.40;;;19.50;99.90;;;;;;5009579;28;20056;-85
2023/05/12 11:09:35;;;;;;;6.85;5.13;;;19.70;99.90;;;;;;5002498;28;20094;-86
2023/05/12 11:12:01;;;;;;;5.70;4.63;;;19.80;99.90;;;;;;4995824;28;20481;-85
2023/05/12 11:14:27;;;;;;;5.68;4.30;;;19.90;99.90;;;;;;5020084;28;20119;-85
2023/05/12 11:16:52;;;;;;;5.30;4.47;;;20.00;99.90;;;;;;4998307;28;20044;-85
2023/05/12 11:19:18;;;;;;;6.15;5.28;;;20.00;99.90;;;;;;5015421;28;20053;-84
2023/05/12 11:21:44;;;;;;;5.55;4.95;;;20.10;99.90;;;;;;5021655;28;20046;-85
2023/05/12 11:24:10;;;;;;;8.85;5.32;;;20.10;99.90;;;;;;4996300;28;20633;-85
2023/05/12 11:26:38;;;;;;;6.13;5.53;;;20.10;99.90;;;;;;4986409;28;20505;-84
2023/05/12 11:29:04;;;;;;;7.70;6.07;;;20.10;99.90;;;;;;5000612;28;20037;-85
2023/05/12 11:31:30;;;;;;;6.90;6.10;;;20.10;99.90;;;;;;4999334;28;20508;-85
2023/05/12 11:34:04;;;;;;;9.80;6.40;;;20.30;99.90;;;;;;4999671;28;20268;-85
2023/05/12 11:36:37;;;;;;;9.40;6.15;;;20.40;99.90;;;;;;5016270;28;20129;-84
2023/05/12 11:39:03;;;;;;;7.18;5.95;;;20.50;99.90;;;;;;4969688;28;20149;-84
2023/05/12 11:41:29;;;;;;;6.00;5.38;;;20.70;99.90;;;;;;5009521;28;20051;-84
2023/05/12 11:43:55;;;;;;;8.13;5.70;;;20.70;99.90;;;;;;5019903;28;20108;-85
2023/05/12 11:46:28;;;;;;;6.95;5.28;;;20.80;99.90;;;;;;5020000;28;20044;-85
2023/05/12 11:48:58;;;;;;;6.63;5.00;;;20.90;99.90;;;;;;5036118;28;20554;-84
2023/05/12 11:51:25;;;;;;;5.65;5.05;;;21.00;99.90;;;;;;5002820;28;20492;-85
2023/05/12 11:53:54;;;;;;;9.77;5.20;;;21.10;99.90;;;;;;5018230;28;20045;-85
2023/05/12 11:56:22;;;;;;;5.28;4.68;;;21.10;99.90;;;;;;5019699;28;20096;-85
2023/05/12 11:58:55;;;;;;;7.07;5.50;;;21.20;99.90;;;;;;5003406;28;20093;-85
2023/05/12 12:01:21;;;;;;;5.57;4.85;;;21.10;99.90;;;;;;5020269;28;20052;-86
2023/05/12 12:03:48;;;;;;;7.75;4.95;;;21.20;99.90;;;;;;5003954;28;20045;-86
2023/05/12 12:06:15;;;;;;;9.65;5.43;;;21.10;99.90;;;;;;5035573;28;20041;-85
2023/05/12 12:09:01;;;;;;;6.97;5.45;;;21.10;99.90;;;;;;5019385;28;20380;-86
2023/05/12 12:11:29;;;;;;;6.90;5.03;;;21.10;99.90;;;;;;5019267;28;20033;-85
2023/05/12 12:13:55;;;;;;;6.63;5.47;;;21.10;99.90;;;;;;5004026;28;20059;-85
2023/05/12 12:16:29;;;;;;;7.60;5.40;;;21.20;99.90;;;;;;5037107;28;20041;-85
2023/05/12 12:18:55;;;;;;;5.68;5.05;;;21.10;99.90;;;;;;5006291;28;20102;-85
2023/05/12 12:21:23;;;;;;;8.15;5.07;;;21.20;99.90;;;;;;5023063;28;20467;-85
2023/05/12 12:23:49;;;;;;;6.63;3.80;;;21.30;99.90;;;;;;5022250;28;20099;-85
2023/05/12 12:26:15;;;;;;;4.80;3.92;;;21.40;99.90;;;;;;5022666;28;20041;-85
2023/05/12 12:28:48;;;;;;;5.07;4.25;;;21.50;99.90;;;;;;5021253;28;20041;-85
2023/05/12 12:31:15;;;;;;;4.93;3.67;;;21.60;99.90;;;;;;5009709;28;20041;-85